Napa, CA

2:53 AM PDT on May 27, 2015 (GMT -0700)
Old Soda Springs Rd 850 ft | | Change Station
CLOSE
Current Station
Personal Weather Station
Location: Napa, CA
Elevation: 846 ft
Nearby Weather Stations

Elev 846 ft 38.38 °N, 122.27 °W | Updated 16 seconds ago

Mostly Cloudy
Mostly Cloudy
51.9 °F
Feels Like 51.9 °F
N
1.0
Wind Variable Wind from SW
Gusts 0.0 mph

Today
High -- | Low -- °F
--% Chance of Precip.
Yesterday
High -- | Low -- °F
Precip. -- in
5:49 AM 8:23 PM
Waxing Gibbous, 66% visible
Pressure 29.97 in
Visibility 10.0 miles
Clouds Overcast 1000 ft
Dew Point 50 °F
Humidity 92%
Rainfall 0.00 in
Snow Depth Not available.
UV 0 out of 12
Pollen 7.30 out of 12
Air Quality Not available.
Flu Activity Sporadic
METAR KAPC 270854Z AUTO 28008KT 10SM OVC010 12/10 A2999 RMK AO2 SLP148 T01170100 55003

More Conditions Fewer Conditions

Pressure 29.97 in
Visibility 10.0 miles
Clouds Overcast 1000 ft
Dew Point 50 °F
Humidity 92%
Rainfall 0.00 in
Snow Depth Not available.
UV 0 out of 12
Pollen 7.30 out of 12
Air Quality Not available.
Flu Activity Sporadic
METAR KAPC 270854Z AUTO 28008KT 10SM OVC010 12/10 A2999 RMK AO2 SLP148 T01170100 55003

More Conditions Fewer Conditions

10-Day Weather Forecast

Almanac

Astronomy

May. 27, 2015 Rise Set
Actual Time
Civil Twilight
Nautical Twilight
Astronomical Twilight
Moon
Length of Visible Light
Length of Day
Tomorrow will be .
, % of the Moon is Illuminated

Today's Extremes

State Highs State Lows

Community

WunderPhotos

Upload Photos

1,824,635 photos uploaded!

WunderBlogs® & News

Nearby

Air Quality

  Air Quality AQ Index Pollutant
Not available.

Snow Depth

Station Depth Elevation

Earthquake Activity

City Distance Mag. Time & Date
Minimum magnitude displayed is 2.5.

Coastal Water Temperatures

Place Temperature

Stations

Nearby Weather Stations

Station Location Temp. Windchill Dew Point Humidity Wind Precip. Elev Updated Type